createdAt,value
2018-12-15T00:01:10.849Z,2.50
2018-12-15T00:03:39.322Z,2.50
2018-12-15T00:06:07.802Z,2.50
2018-12-15T00:08:36.266Z,2.40
2018-12-15T00:11:04.737Z,2.40
2018-12-15T00:13:33.394Z,2.40
2018-12-15T00:16:01.796Z,2.40
2018-12-15T00:18:30.202Z,2.40
2018-12-15T00:20:58.662Z,2.40
2018-12-15T00:23:27.051Z,2.40
2018-12-15T00:25:55.728Z,2.40
2018-12-15T00:28:24.134Z,2.40
2018-12-15T00:30:52.600Z,2.40
2018-12-15T00:33:20.996Z,2.40
2018-12-15T00:35:49.440Z,2.30
2018-12-15T00:38:18.393Z,2.30
2018-12-15T00:40:46.812Z,2.30
2018-12-15T00:43:15.926Z,2.40
2018-12-15T00:45:44.352Z,2.40
2018-12-15T00:48:12.781Z,2.40
2018-12-15T00:50:41.252Z,2.40
2018-12-15T00:53:09.904Z,2.40
2018-12-15T00:55:38.306Z,2.40
2018-12-15T00:58:06.796Z,2.30
2018-12-15T01:00:35.286Z,2.30
2018-12-15T01:03:03.745Z,2.30
2018-12-15T01:05:32.246Z,2.30
2018-12-15T01:08:00.633Z,2.30
2018-12-15T01:10:29.059Z,2.20
2018-12-15T01:12:57.694Z,2.20
2018-12-15T01:15:31.551Z,2.20
2018-12-15T01:17:59.959Z,2.20
2018-12-15T01:20:28.365Z,2.10
2018-12-15T01:22:56.835Z,2.10
2018-12-15T01:25:25.337Z,2.20
2018-12-15T01:27:53.800Z,2.10
2018-12-15T01:30:22.204Z,2.10
2018-12-15T01:32:50.616Z,2.00
2018-12-15T01:35:19.032Z,2.00
2018-12-15T01:37:47.418Z,2.00
2018-12-15T01:40:15.894Z,2.00
2018-12-15T01:42:44.432Z,2.00
2018-12-15T01:45:12.859Z,2.00
2018-12-15T01:47:41.326Z,2.00
2018-12-15T01:50:09.726Z,2.00
2018-12-15T01:52:38.127Z,2.00
2018-12-15T01:55:06.586Z,2.00
2018-12-15T01:57:34.999Z,2.10
2018-12-15T02:00:04.117Z,2.00
2018-12-15T02:02:32.821Z,2.00
2018-12-15T02:05:01.221Z,2.00
2018-12-15T02:07:29.627Z,2.00
2018-12-15T02:09:58.082Z,2.00
2018-12-15T02:12:26.936Z,2.00
2018-12-15T02:14:55.341Z,2.00
2018-12-15T02:17:23.743Z,2.00
2018-12-15T02:19:52.189Z,2.00
2018-12-15T02:22:20.719Z,2.00
2018-12-15T02:24:49.369Z,2.00
2018-12-15T02:27:17.775Z,2.00
2018-12-15T02:29:46.205Z,1.90
2018-12-15T02:32:14.609Z,2.00
2018-12-15T02:34:43.029Z,2.00
2018-12-15T02:37:11.431Z,1.90
2018-12-15T02:39:39.822Z,1.90
2018-12-15T02:42:08.233Z,2.00
2018-12-15T02:44:36.629Z,2.00
2018-12-15T02:47:05.091Z,2.00
2018-12-15T02:49:33.500Z,2.00
2018-12-15T02:52:01.907Z,1.90
2018-12-15T02:54:30.304Z,1.90
2018-12-15T02:56:58.752Z,1.90
2018-12-15T02:59:27.187Z,1.90
2018-12-15T03:01:55.660Z,1.90
2018-12-15T03:04:24.118Z,1.90
2018-12-15T03:06:52.539Z,1.90
2018-12-15T03:09:20.934Z,1.90
2018-12-15T03:11:49.389Z,1.90
2018-12-15T03:14:17.857Z,1.90
2018-12-15T03:17:05.638Z,1.90
2018-12-15T03:19:34.088Z,1.80
2018-12-15T03:22:02.553Z,1.80
2018-12-15T03:24:30.964Z,1.80
2018-12-15T03:26:59.424Z,1.80
2018-12-15T03:29:27.905Z,1.80
2018-12-15T03:31:56.341Z,1.90
2018-12-15T03:34:24.750Z,1.90
2018-12-15T03:36:53.416Z,1.90
2018-12-15T03:39:21.824Z,1.90
2018-12-15T03:41:50.934Z,2.00
2018-12-15T03:44:19.318Z,2.00
2018-12-15T03:46:47.735Z,1.90
2018-12-15T03:49:16.145Z,1.90
2018-12-15T03:51:44.570Z,1.90
2018-12-15T03:54:13.037Z,1.90
2018-12-15T03:56:41.427Z,1.80
2018-12-15T03:59:09.839Z,1.80
2018-12-15T04:01:38.220Z,1.80
2018-12-15T04:04:06.658Z,1.80
2018-12-15T04:06:35.294Z,1.80
2018-12-15T04:09:05.248Z,1.80
2018-12-15T04:11:33.719Z,1.80
2018-12-15T04:14:02.132Z,1.80
2018-12-15T04:16:30.577Z,1.80
2018-12-15T04:18:59.075Z,1.80
2018-12-15T04:21:27.464Z,1.80
2018-12-15T04:23:55.946Z,1.70
2018-12-15T04:26:24.583Z,1.80
2018-12-15T04:28:53.010Z,1.80
2018-12-15T04:31:21.407Z,1.80
2018-12-15T04:33:49.824Z,1.80
2018-12-15T04:36:19.053Z,1.80
2018-12-15T04:38:48.038Z,1.80
2018-12-15T04:41:16.436Z,1.90
2018-12-15T04:43:45.019Z,1.90
2018-12-15T04:46:13.414Z,1.90
2018-12-15T04:48:41.824Z,1.80
2018-12-15T04:51:10.226Z,1.90
2018-12-15T04:53:38.635Z,1.90
2018-12-15T04:56:07.031Z,1.90
2018-12-15T04:58:35.439Z,1.90
2018-12-15T05:01:03.827Z,2.00
2018-12-15T05:03:32.316Z,2.00
2018-12-15T05:06:00.706Z,2.00
2018-12-15T05:08:29.100Z,1.90
2018-12-15T05:10:57.492Z,2.00
2018-12-15T05:13:25.918Z,2.00
2018-12-15T05:15:54.307Z,2.00
2018-12-15T05:18:22.835Z,1.90
2018-12-15T05:20:51.296Z,1.90
2018-12-15T05:23:19.699Z,1.90
2018-12-15T05:25:48.218Z,1.90
2018-12-15T05:28:16.813Z,1.90
2018-12-15T05:30:45.214Z,1.80
2018-12-15T05:33:13.699Z,1.80
2018-12-15T05:35:42.101Z,1.80
2018-12-15T05:38:10.504Z,1.80
2018-12-15T05:40:38.939Z,1.80
2018-12-15T05:43:07.335Z,1.80
2018-12-15T05:45:35.769Z,1.80
2018-12-15T05:48:04.293Z,1.90
2018-12-15T05:50:32.771Z,1.80
2018-12-15T05:53:01.190Z,1.80
2018-12-15T05:55:29.638Z,1.80
2018-12-15T05:57:58.112Z,1.70
2018-12-15T06:00:26.564Z,1.80
2018-12-15T06:02:55.058Z,1.80
2018-12-15T06:05:23.546Z,1.80
2018-12-15T06:07:51.942Z,1.80
2018-12-15T06:10:20.408Z,1.80
2018-12-15T06:12:48.812Z,1.80
2018-12-15T06:15:17.280Z,1.80
2018-12-15T06:17:45.750Z,1.90
2018-12-15T06:20:14.152Z,1.90
2018-12-15T06:22:42.545Z,1.90
2018-12-15T06:25:10.954Z,1.90
2018-12-15T06:27:39.347Z,1.80
2018-12-15T06:30:08.670Z,1.80
2018-12-15T06:32:37.057Z,1.80
2018-12-15T06:35:06.554Z,1.80
2018-12-15T06:37:34.934Z,1.80
2018-12-15T06:40:04.544Z,1.80
2018-12-15T06:42:33.338Z,1.80
2018-12-15T06:45:01.800Z,1.90
2018-12-15T06:47:30.196Z,1.90
2018-12-15T06:49:58.607Z,1.80
2018-12-15T06:52:27.001Z,1.80
2018-12-15T06:54:55.669Z,1.80
2018-12-15T06:57:24.062Z,1.80
2018-12-15T06:59:52.508Z,1.80
2018-12-15T07:02:20.965Z,1.80
2018-12-15T07:04:49.514Z,1.90
2018-12-15T07:07:17.910Z,1.90
2018-12-15T07:09:46.379Z,1.90
2018-12-15T07:12:14.872Z,1.90
2018-12-15T07:14:43.270Z,1.90
2018-12-15T07:17:11.683Z,2.00
2018-12-15T07:19:40.089Z,2.00
2018-12-15T07:22:08.535Z,2.00
2018-12-15T07:24:36.972Z,1.90
2018-12-15T07:27:05.453Z,1.90
2018-12-15T07:29:33.851Z,1.90
2018-12-15T07:32:02.290Z,1.90
2018-12-15T07:34:30.749Z,1.90
2018-12-15T07:36:59.154Z,1.90
2018-12-15T07:39:28.538Z,1.90
2018-12-15T07:41:57.230Z,1.90
2018-12-15T07:44:25.628Z,1.90
2018-12-15T07:46:54.046Z,2.00
2018-12-15T07:49:22.441Z,2.10
2018-12-15T07:51:50.863Z,2.10
2018-12-15T07:54:19.391Z,2.10
2018-12-15T07:56:47.787Z,2.20
2018-12-15T07:59:16.190Z,2.20
2018-12-15T08:01:44.613Z,2.20
2018-12-15T08:04:13.015Z,2.20
2018-12-15T08:06:41.483Z,2.30
2018-12-15T08:09:12.334Z,2.30
2018-12-15T08:11:46.209Z,2.30
2018-12-15T08:14:14.893Z,2.30
2018-12-15T08:16:43.313Z,2.20
2018-12-15T08:19:11.717Z,2.20
2018-12-15T08:21:40.242Z,2.20
2018-12-15T08:24:08.823Z,2.20
2018-12-15T08:26:37.434Z,2.20
2018-12-15T08:29:05.933Z,2.20
2018-12-15T08:31:34.487Z,2.20
2018-12-15T08:34:02.890Z,2.20
2018-12-15T08:36:31.292Z,2.30
2018-12-15T08:38:59.793Z,2.20
2018-12-15T08:41:28.294Z,2.20
2018-12-15T08:43:56.736Z,2.20
2018-12-15T08:46:25.136Z,2.20
2018-12-15T08:48:53.664Z,2.10
2018-12-15T08:51:22.220Z,2.10
2018-12-15T08:53:50.709Z,2.00
2018-12-15T08:56:19.184Z,2.00
2018-12-15T08:58:47.663Z,2.00
2018-12-15T09:01:16.270Z,2.00
2018-12-15T09:03:44.664Z,2.10
2018-12-15T09:06:13.336Z,2.10
2018-12-15T09:08:41.806Z,2.10
2018-12-15T09:11:10.295Z,2.10
2018-12-15T09:13:38.713Z,2.20
2018-12-15T09:16:07.242Z,2.10
2018-12-15T09:18:35.726Z,2.10
2018-12-15T09:21:04.323Z,2.20
2018-12-15T09:23:33.018Z,2.10
2018-12-15T09:26:01.660Z,2.10
2018-12-15T09:28:30.112Z,2.20
2018-12-15T09:30:58.514Z,2.30
2018-12-15T09:33:27.040Z,2.40
2018-12-15T09:35:55.428Z,2.50
2018-12-15T09:38:23.946Z,2.40
2018-12-15T09:40:52.386Z,2.40
2018-12-15T09:43:20.937Z,2.40
2018-12-15T09:45:49.523Z,2.40
2018-12-15T09:48:17.987Z,2.50
2018-12-15T09:50:46.387Z,2.60
2018-12-15T09:53:14.848Z,2.70
2018-12-15T09:55:43.306Z,2.70
2018-12-15T09:58:11.688Z,2.60
2018-12-15T10:00:40.211Z,2.70
2018-12-15T10:03:08.783Z,2.70
2018-12-15T10:05:37.311Z,2.70
2018-12-15T10:08:05.769Z,2.70
2018-12-15T10:10:34.226Z,2.70
2018-12-15T10:13:02.636Z,2.70
2018-12-15T10:15:31.048Z,2.80
2018-12-15T10:17:59.463Z,2.80
2018-12-15T10:20:27.977Z,2.80
2018-12-15T10:22:56.360Z,2.70
2018-12-15T10:25:24.812Z,2.70
2018-12-15T10:27:53.250Z,2.70
2018-12-15T10:30:27.162Z,2.80
2018-12-15T10:32:55.869Z,2.80
2018-12-15T10:35:24.329Z,2.80
2018-12-15T10:37:52.730Z,2.90
2018-12-15T10:40:21.130Z,2.90
2018-12-15T10:42:49.538Z,2.90
2018-12-15T10:45:17.948Z,3.00
2018-12-15T10:47:46.471Z,3.00
2018-12-15T10:50:14.939Z,3.20
2018-12-15T10:52:43.344Z,3.20
2018-12-15T10:55:11.911Z,3.20
2018-12-15T10:57:40.314Z,3.30
2018-12-15T11:00:11.173Z,3.20
2018-12-15T11:02:39.569Z,3.20
2018-12-15T11:05:08.104Z,3.30
2018-12-15T11:07:36.489Z,3.20
2018-12-15T11:10:06.993Z,3.00
2018-12-15T11:12:35.496Z,3.00
2018-12-15T11:15:04.379Z,3.10
2018-12-15T11:17:32.781Z,3.10
2018-12-15T11:20:01.213Z,3.10
2018-12-15T11:22:29.885Z,3.20
2018-12-15T11:24:58.375Z,3.20
2018-12-15T11:27:26.787Z,3.20
2018-12-15T11:29:55.242Z,3.20
2018-12-15T11:32:23.739Z,3.20
2018-12-15T11:34:52.162Z,3.20
2018-12-15T11:37:20.614Z,3.20
2018-12-15T11:39:49.042Z,3.20
2018-12-15T11:42:17.444Z,3.20
2018-12-15T11:44:45.851Z,3.20
2018-12-15T11:47:14.422Z,3.20
2018-12-15T11:49:43.745Z,3.10
2018-12-15T11:52:12.539Z,3.10
2018-12-15T11:54:40.964Z,3.00
2018-12-15T11:57:09.490Z,3.10
2018-12-15T11:59:37.879Z,3.00
2018-12-15T12:02:06.301Z,3.00
2018-12-15T12:04:34.954Z,3.00
2018-12-15T12:07:03.502Z,3.00
2018-12-15T12:09:31.969Z,3.10
2018-12-15T12:12:00.376Z,3.10
2018-12-15T12:14:28.829Z,3.10
2018-12-15T12:16:57.407Z,3.00
2018-12-15T12:19:25.895Z,2.90
2018-12-15T12:21:54.347Z,2.90
2018-12-15T12:24:22.751Z,3.00
2018-12-15T12:26:51.153Z,3.00
2018-12-15T12:29:19.644Z,3.00
2018-12-15T12:31:48.192Z,3.00
2018-12-15T12:34:16.681Z,3.00
2018-12-15T12:36:45.325Z,3.00
2018-12-15T12:39:13.757Z,3.00
2018-12-15T12:41:42.175Z,2.90
2018-12-15T12:44:10.865Z,2.90
2018-12-15T12:46:39.444Z,2.90
2018-12-15T12:49:07.955Z,3.00
2018-12-15T12:51:36.380Z,3.00
2018-12-15T12:54:04.987Z,3.00
2018-12-15T12:56:33.544Z,3.10
2018-12-15T12:59:01.984Z,3.10
2018-12-15T13:01:30.420Z,3.10
2018-12-15T13:03:58.889Z,3.00
2018-12-15T13:06:27.661Z,2.90
2018-12-15T13:08:56.111Z,2.90
2018-12-15T13:11:24.632Z,2.90
2018-12-15T13:13:53.180Z,2.80
2018-12-15T13:16:21.641Z,2.90
2018-12-15T13:18:50.075Z,3.00
2018-12-15T13:21:18.488Z,3.00
2018-12-15T13:23:47.112Z,3.00
2018-12-15T13:26:15.585Z,3.00
2018-12-15T13:28:44.058Z,2.90
2018-12-15T13:31:12.478Z,3.00
2018-12-15T13:33:44.204Z,3.00
2018-12-15T13:36:13.526Z,3.00
2018-12-15T13:38:42.273Z,3.00
2018-12-15T13:41:10.734Z,3.00
2018-12-15T13:43:39.453Z,2.90
2018-12-15T13:46:07.884Z,2.90
2018-12-15T13:48:36.280Z,2.80
2018-12-15T13:51:04.836Z,2.80
2018-12-15T13:53:33.316Z,2.80
2018-12-15T13:56:01.769Z,2.80
2018-12-15T13:58:30.174Z,2.80
2018-12-15T14:00:58.572Z,2.80
2018-12-15T14:03:27.009Z,2.80
2018-12-15T14:05:55.534Z,2.80
2018-12-15T14:08:24.024Z,2.80
2018-12-15T14:10:52.426Z,2.80
2018-12-15T14:13:20.857Z,2.80
2018-12-15T14:15:49.236Z,2.90
2018-12-15T14:18:17.700Z,2.80
2018-12-15T14:20:46.117Z,2.80
2018-12-15T14:23:14.528Z,2.80
2018-12-15T14:25:42.942Z,2.80
2018-12-15T14:28:11.416Z,2.70
2018-12-15T14:30:39.914Z,2.70
2018-12-15T14:33:08.320Z,2.80
2018-12-15T14:35:36.749Z,2.80
2018-12-15T14:38:05.429Z,2.80
2018-12-15T14:40:33.937Z,2.80
2018-12-15T14:43:02.372Z,2.70
2018-12-15T14:45:30.767Z,2.70
2018-12-15T14:47:59.267Z,2.70
2018-12-15T14:50:29.121Z,2.70
2018-12-15T14:52:57.564Z,2.70
2018-12-15T14:55:25.963Z,2.70
2018-12-15T14:57:54.435Z,2.70
2018-12-15T15:00:22.881Z,2.70
2018-12-15T15:02:51.533Z,2.70
2018-12-15T15:05:19.995Z,2.70
2018-12-15T15:07:48.478Z,2.60
2018-12-15T15:10:17.035Z,2.70
2018-12-15T15:12:45.583Z,2.70
2018-12-15T15:15:14.035Z,2.60
2018-12-15T15:17:42.504Z,2.60
2018-12-15T15:20:11.215Z,2.60
2018-12-15T15:22:39.679Z,2.50
2018-12-15T15:25:08.237Z,2.50
2018-12-15T15:27:36.808Z,2.50
2018-12-15T15:30:06.699Z,2.50
2018-12-15T15:32:35.177Z,2.50
2018-12-15T15:35:04.746Z,2.50
2018-12-15T15:37:33.276Z,2.50
2018-12-15T15:40:01.841Z,2.60
2018-12-15T15:42:30.333Z,2.60
2018-12-15T15:44:58.964Z,2.50
2018-12-15T15:47:27.660Z,2.60
2018-12-15T15:49:56.179Z,2.60
2018-12-15T15:52:24.706Z,2.60
2018-12-15T15:54:53.197Z,2.70
2018-12-15T15:57:21.675Z,2.70
2018-12-15T15:59:50.156Z,2.70
2018-12-15T16:02:18.577Z,2.70
2018-12-15T16:04:47.102Z,2.70
2018-12-15T16:07:15.646Z,2.60
2018-12-15T16:09:45.040Z,2.60
2018-12-15T16:12:13.874Z,2.50
2018-12-15T16:14:42.370Z,2.50
2018-12-15T16:17:10.846Z,2.50
2018-12-15T16:19:39.334Z,2.50
2018-12-15T16:22:07.898Z,2.60
2018-12-15T16:24:36.430Z,2.50
2018-12-15T16:27:04.997Z,2.50
2018-12-15T16:29:33.546Z,2.50
2018-12-15T16:32:02.137Z,2.50
2018-12-15T16:34:30.636Z,2.40
2018-12-15T16:36:59.135Z,2.30
2018-12-15T16:39:27.548Z,2.30
2018-12-15T16:41:56.698Z,2.20
2018-12-15T16:44:25.399Z,2.20
2018-12-15T16:46:54.559Z,2.10
2018-12-15T16:49:22.953Z,2.00
2018-12-15T16:51:51.357Z,1.90
2018-12-15T16:54:19.789Z,1.90
2018-12-15T16:56:48.222Z,1.80
2018-12-15T16:59:16.649Z,1.80
2018-12-15T17:01:45.253Z,1.70
2018-12-15T17:04:13.641Z,1.70
2018-12-15T17:06:42.105Z,1.60
2018-12-15T17:09:10.653Z,1.60
2018-12-15T17:11:39.069Z,1.70
2018-12-15T17:14:07.520Z,1.80
2018-12-15T17:16:35.922Z,1.80
2018-12-15T17:19:04.382Z,1.80
2018-12-15T17:21:32.890Z,1.80
2018-12-15T17:24:01.375Z,1.80
2018-12-15T17:26:29.781Z,1.80
2018-12-15T17:28:58.183Z,1.90
2018-12-15T17:31:26.600Z,2.00
2018-12-15T17:33:55.040Z,2.00
2018-12-15T17:36:23.511Z,2.10
2018-12-15T17:38:51.909Z,2.10
2018-12-15T17:41:20.319Z,2.10
2018-12-15T17:43:48.781Z,2.20
2018-12-15T17:46:17.266Z,2.30
2018-12-15T17:48:45.661Z,2.30
2018-12-15T17:51:14.155Z,2.30
2018-12-15T17:53:42.556Z,2.30
2018-12-15T17:56:10.982Z,2.30
2018-12-15T17:58:39.372Z,2.30
2018-12-15T18:01:07.874Z,2.30
2018-12-15T18:03:36.272Z,2.30
2018-12-15T18:06:04.679Z,2.30
2018-12-15T18:08:33.131Z,2.30
2018-12-15T18:11:01.570Z,2.20
2018-12-15T18:13:30.087Z,2.20
2018-12-15T18:15:58.636Z,2.20
2018-12-15T18:18:27.050Z,2.10
2018-12-15T18:20:55.456Z,2.00
2018-12-15T18:23:23.906Z,1.80
2018-12-15T18:25:52.437Z,1.60
2018-12-15T18:28:20.900Z,1.60
2018-12-15T18:30:49.319Z,1.60
2018-12-15T18:33:17.728Z,1.70
2018-12-15T18:35:46.133Z,1.80
2018-12-15T18:38:14.543Z,1.80
2018-12-15T18:40:42.958Z,1.90
2018-12-15T18:43:11.414Z,2.00
2018-12-15T18:45:39.813Z,2.00
2018-12-15T18:48:08.275Z,2.00
2018-12-15T18:50:36.675Z,2.00
2018-12-15T18:53:05.123Z,2.00
2018-12-15T18:55:33.570Z,2.00
2018-12-15T18:58:02.008Z,2.00
2018-12-15T19:00:30.498Z,2.00
2018-12-15T19:02:58.953Z,2.00
2018-12-15T19:05:27.349Z,1.90
2018-12-15T19:07:56.017Z,1.90
2018-12-15T19:10:24.426Z,2.00
2018-12-15T19:12:52.901Z,2.00
2018-12-15T19:15:21.449Z,2.00
2018-12-15T19:17:49.869Z,1.90
2018-12-15T19:20:18.273Z,1.90
2018-12-15T19:22:46.701Z,1.90
2018-12-15T19:25:15.248Z,1.90
2018-12-15T19:27:43.647Z,1.90
2018-12-15T19:30:12.134Z,2.00
2018-12-15T19:32:40.528Z,2.00
2018-12-15T19:35:09.051Z,2.00
2018-12-15T19:37:37.452Z,1.90
2018-12-15T19:40:06.772Z,1.90
2018-12-15T19:42:35.178Z,1.90
2018-12-15T19:45:03.918Z,1.90
2018-12-15T19:47:32.370Z,1.90
2018-12-15T19:50:00.807Z,1.90
2018-12-15T19:52:29.378Z,1.90
2018-12-15T19:54:57.876Z,1.90
2018-12-15T19:57:26.360Z,1.90
2018-12-15T19:59:54.862Z,1.90
2018-12-15T20:02:23.310Z,1.90
2018-12-15T20:04:51.722Z,1.80
2018-12-15T20:07:20.177Z,1.80
2018-12-15T20:09:48.656Z,1.80
2018-12-15T20:12:17.052Z,1.80
2018-12-15T20:14:45.463Z,1.80
2018-12-15T20:17:13.874Z,1.80
2018-12-15T20:19:42.298Z,1.90
2018-12-15T20:22:10.717Z,1.90
2018-12-15T20:24:39.110Z,2.00
2018-12-15T20:27:07.606Z,1.90
2018-12-15T20:29:36.017Z,1.90
2018-12-15T20:32:04.476Z,1.90
2018-12-15T20:34:32.957Z,1.90
2018-12-15T20:37:01.359Z,1.80
2018-12-15T20:39:29.838Z,1.90
2018-12-15T20:41:58.313Z,1.90
2018-12-15T20:44:28.336Z,1.80
2018-12-15T20:46:57.230Z,1.80
2018-12-15T20:49:25.685Z,1.90
2018-12-15T20:51:55.424Z,1.90
2018-12-15T20:54:24.148Z,1.90
2018-12-15T20:56:52.617Z,1.90
2018-12-15T20:59:21.011Z,1.90
2018-12-15T21:01:49.428Z,1.90
2018-12-15T21:04:17.825Z,2.00
2018-12-15T21:06:46.333Z,2.00
2018-12-15T21:09:14.776Z,2.00
2018-12-15T21:11:43.271Z,2.00
2018-12-15T21:14:11.720Z,2.00
2018-12-15T21:16:40.196Z,2.00
2018-12-15T21:19:08.610Z,2.00
2018-12-15T21:21:37.324Z,2.00
2018-12-15T21:24:05.767Z,2.00
2018-12-15T21:26:34.193Z,2.00
2018-12-15T21:29:02.572Z,2.00
2018-12-15T21:31:31.089Z,2.00
2018-12-15T21:33:59.531Z,2.00
2018-12-15T21:36:27.996Z,1.90
2018-12-15T21:38:56.406Z,1.90
2018-12-15T21:41:24.918Z,1.90
2018-12-15T21:43:53.312Z,1.90
2018-12-15T21:46:21.800Z,1.90
2018-12-15T21:48:50.186Z,1.90
2018-12-15T21:51:18.630Z,2.00
2018-12-15T21:53:47.024Z,2.10
2018-12-15T21:56:15.447Z,2.10
2018-12-15T21:58:43.870Z,2.00
2018-12-15T22:01:12.585Z,2.00
2018-12-15T22:03:40.988Z,1.90
2018-12-15T22:06:09.414Z,1.90
2018-12-15T22:08:37.879Z,1.90
2018-12-15T22:11:06.266Z,2.00
2018-12-15T22:13:34.674Z,2.00
2018-12-15T22:16:03.163Z,2.00
2018-12-15T22:18:31.553Z,2.10
2018-12-15T22:21:00.229Z,2.10
2018-12-15T22:23:29.617Z,2.00
2018-12-15T22:25:58.178Z,2.00
2018-12-15T22:28:26.608Z,1.90
2018-12-15T22:30:55.006Z,1.90
2018-12-15T22:33:23.416Z,2.00
2018-12-15T22:35:51.830Z,2.00
2018-12-15T22:38:20.294Z,2.00
2018-12-15T22:40:48.687Z,2.00
2018-12-15T22:43:17.084Z,2.10
2018-12-15T22:45:45.620Z,2.10
2018-12-15T22:48:14.038Z,2.10
2018-12-15T22:50:42.420Z,2.20
2018-12-15T22:53:10.877Z,2.20
2018-12-15T22:55:39.343Z,2.10
2018-12-15T22:58:07.827Z,2.10
2018-12-15T23:00:42.009Z,2.10
2018-12-15T23:03:10.423Z,2.10
2018-12-15T23:05:38.888Z,2.20
2018-12-15T23:08:07.375Z,2.20
2018-12-15T23:10:36.803Z,2.20
2018-12-15T23:13:05.366Z,2.10
2018-12-15T23:15:33.835Z,2.10
2018-12-15T23:18:02.357Z,2.10
2018-12-15T23:20:30.873Z,2.10
2018-12-15T23:22:59.287Z,2.10
2018-12-15T23:25:27.776Z,2.00
2018-12-15T23:27:56.183Z,2.00
2018-12-15T23:30:24.582Z,2.00
2018-12-15T23:32:52.990Z,2.10
2018-12-15T23:35:21.385Z,2.10
2018-12-15T23:37:49.796Z,2.10
2018-12-15T23:40:18.199Z,2.10
2018-12-15T23:42:46.651Z,2.10
2018-12-15T23:45:15.109Z,2.10
2018-12-15T23:47:43.524Z,2.00
2018-12-15T23:50:11.961Z,2.10
2018-12-15T23:52:40.377Z,2.10
2018-12-15T23:55:08.833Z,2.10
2018-12-15T23:57:37.315Z,2.10
